Time;durP1;ratioP1;P1;durP2;ratioP2;P2;SDS_P1;SDS_P2;PMS_P1;PMS_P2;Temp;Humidity;BMP_temperature;BMP_pressure;BME280_temperature;BME280_humidity;BME280_pressure;Samples;Min_cycle;Max_cycle;Signal;HPM_P1;HPM_P2
2023/05/13 00:02:14;;;;;;;1.05;0.98;;;;;;;8.60;76.60;94993.88;5132282;27;20720;-78
2023/05/13 00:04:41;;;;;;;0.80;0.80;;;;;;;8.69;77.48;95002.06;5132120;27;20733;-77
2023/05/13 00:07:08;;;;;;;1.20;1.10;;;;;;;8.76;72.93;94997.00;5131438;27;20644;-77
2023/05/13 00:09:35;;;;;;;0.90;0.90;;;;;;;8.78;72.47;94989.41;5132489;27;20289;-77
2023/05/13 00:12:02;;;;;;;3.00;1.05;;;;;;;8.73;72.84;94992.25;5132900;27;20237;-79
2023/05/13 00:14:30;;;;;;;1.02;0.90;;;;;;;8.73;73.72;95014.66;5132637;27;20201;-79
2023/05/13 00:16:58;;;;;;;1.25;1.02;;;;;;;8.78;73.82;94997.50;5132520;27;20300;-78
2023/05/13 00:19:25;;;;;;;1.42;0.93;;;;;;;8.77;73.12;94996.69;5132578;27;20204;-77
2023/05/13 00:21:51;;;;;;;2.78;1.17;;;;;;;8.94;71.63;94998.72;5132183;27;20201;-78
2023/05/13 00:24:19;;;;;;;3.83;1.50;;;;;;;8.94;72.55;95014.16;5131979;27;20193;-77
2023/05/13 00:26:45;;;;;;;1.42;1.25;;;;;;;8.93;72.27;95026.84;5131988;27;20197;-77
2023/05/13 00:29:12;;;;;;;3.80;1.23;;;;;;;8.99;72.91;95017.53;5132303;27;20261;-77
2023/05/13 00:31:40;;;;;;;2.88;1.77;;;;;;;8.98;74.34;95026.75;5132940;27;20305;-77
2023/05/13 00:34:07;;;;;;;3.97;2.10;;;;;;;8.89;78.85;95025.88;5132245;27;20299;-77
2023/05/13 00:36:34;;;;;;;4.47;2.58;;;;;;;8.92;82.50;95027.94;5132418;27;20281;-77
2023/05/13 00:39:00;;;;;;;3.42;2.10;;;;;;;8.94;84.62;95028.44;5132138;27;20616;-77
2023/05/13 00:41:27;;;;;;;2.97;2.20;;;;;;;8.97;87.74;95021.63;5132063;27;20213;-78
2023/05/13 00:43:55;;;;;;;5.07;3.25;;;;;;;8.94;89.93;95036.56;5133723;27;20209;-78
2023/05/13 00:46:22;;;;;;;5.53;3.30;;;;;;;8.87;91.24;95036.19;5143227;27;20650;-78
2023/05/13 00:48:51;;;;;;;4.60;3.00;;;;;;;8.81;92.46;95042.81;5131414;27;20246;-78
2023/05/13 00:51:18;;;;;;;4.40;2.53;;;;;;;8.83;92.92;95051.41;5130703;27;20229;-76
2023/05/13 00:53:46;;;;;;;4.60;3.20;;;;;;;8.75;92.99;95041.31;5131394;27;20200;-78
2023/05/13 00:56:13;;;;;;;3.22;2.65;;;;;;;8.76;93.73;95045.63;5131336;27;20712;-77
2023/05/13 00:58:40;;;;;;;5.10;2.80;;;;;;;8.78;94.48;95040.72;5145291;27;20213;-77
2023/05/13 01:01:14;;;;;;;6.15;3.17;;;;;;;8.65;94.52;95041.56;5131526;27;20573;-77
2023/05/13 01:04:01;;;;;;;4.53;3.17;;;;;;;8.67;94.95;95036.66;5130943;27;20189;-77
2023/05/13 01:06:36;;;;;;;6.28;3.28;;;;;;;8.55;96.01;95035.31;5130802;27;20227;-76
2023/05/13 01:09:11;;;;;;;5.45;3.45;;;;;;;8.44;96.76;95033.94;5131149;27;20226;-76
2023/05/13 01:11:41;;;;;;;4.60;3.30;;;;;;;8.40;96.29;95041.03;5131570;27;20836;-76
2023/05/13 01:14:12;;;;;;;7.25;2.92;;;;;;;8.36;95.65;95036.53;5132202;27;20252;-76
2023/05/13 01:16:41;;;;;;;6.15;3.53;;;;;;;8.45;96.16;95043.63;5131535;27;20277;-77
2023/05/13 01:19:23;;;;;;;9.68;3.53;;;;;;;8.33;96.42;95046.06;5142581;27;20253;-76
2023/05/13 01:21:53;;;;;;;4.05;3.25;;;;;;;8.19;96.47;95056.84;5138044;27;20253;-76
2023/05/13 01:24:20;;;;;;;2.30;1.67;;;;;;;8.18;97.06;95057.16;5136653;27;20881;-76
2023/05/13 01:26:48;;;;;;;1.58;1.48;;;;;;;8.15;97.44;95060.44;5130657;27;20684;-76
2023/05/13 01:29:15;;;;;;;7.88;3.38;;;;;;;8.08;94.58;95066.22;5130220;27;20288;-77
2023/05/13 01:31:42;;;;;;;2.80;1.80;;;;;;;8.09;91.68;95075.13;5130611;27;20780;-78
2023/05/13 01:34:11;;;;;;;3.47;2.40;;;;;;;8.21;92.50;95072.72;5130841;27;20278;-77
2023/05/13 01:36:38;;;;;;;2.30;1.80;;;;;;;8.22;84.76;95068.91;5130939;27;20197;-78
2023/05/13 01:39:08;;;;;;;3.55;2.30;;;;;;;8.28;82.92;95073.13;5131024;27;20208;-77
2023/05/13 01:41:36;;;;;;;3.58;2.38;;;;;;;8.31;82.53;95072.53;5130869;27;20691;-77
2023/05/13 01:44:03;;;;;;;5.68;2.35;;;;;;;8.32;82.46;95063.34;5131099;27;20200;-76
2023/05/13 01:46:30;;;;;;;3.75;2.63;;;;;;;8.37;81.48;95065.94;5130616;27;21032;-76
2023/05/13 01:48:56;;;;;;;2.47;1.77;;;;;;;8.43;82.14;95058.53;5130825;27;20295;-76
2023/05/13 01:51:23;;;;;;;4.25;2.00;;;;;;;8.59;82.67;95061.69;5120467;27;20642;-77
2023/05/13 01:53:50;;;;;;;2.47;1.83;;;;;;;8.60;85.50;95058.69;5126519;27;20235;-75
2023/05/13 01:56:18;;;;;;;2.40;1.92;;;;;;;8.37;84.94;95055.13;5130568;27;20207;-75
2023/05/13 01:58:45;;;;;;;3.13;2.05;;;;;;;8.29;82.56;95057.72;5130668;27;20204;-77
2023/05/13 02:01:11;;;;;;;3.40;2.42;;;;;;;8.43;84.82;95053.94;5130653;27;20904;-76
2023/05/13 02:03:38;;;;;;;4.18;2.33;;;;;;;8.58;86.18;95060.09;5130315;27;20193;-76
2023/05/13 02:06:05;;;;;;;6.20;2.22;;;;;;;8.50;85.60;95048.91;5130679;27;20265;-76
2023/05/13 02:08:32;;;;;;;3.50;2.03;;;;;;;8.49;84.28;95052.69;5130481;27;20206;-77
2023/05/13 02:10:59;;;;;;;5.88;2.22;;;;;;;8.63;84.47;95058.06;5130550;27;20736;-75
2023/05/13 02:13:27;;;;;;;3.63;2.30;;;;;;;8.75;86.62;95054.81;5130097;27;21009;-77
2023/05/13 02:15:54;;;;;;;2.53;1.90;;;;;;;8.76;88.25;95056.44;5130271;27;20201;-77
2023/05/13 02:18:21;;;;;;;4.45;2.15;;;;;;;8.81;89.67;95061.72;5130222;27;20680;-77
2023/05/13 02:20:48;;;;;;;8.80;2.78;;;;;;;8.74;90.15;95069.47;5130842;27;20287;-77
2023/05/13 02:23:16;;;;;;;8.30;3.90;;;;;;;8.61;91.78;95071.06;5144466;27;20212;-77
2023/05/13 02:25:42;;;;;;;4.65;3.50;;;;;;;8.43;93.89;95075.53;5130406;27;20250;-77
2023/05/13 02:28:09;;;;;;;4.90;3.53;;;;;;;8.48;95.15;95071.91;5130649;28;20270;-77
2023/05/13 02:30:37;;;;;;;8.18;3.97;;;;;;;8.40;96.15;95070.72;5130264;28;20205;-77
2023/05/13 02:33:04;;;;;;;7.75;4.47;;;;;;;8.38;95.64;95078.31;5129338;28;20240;-77
2023/05/13 02:35:31;;;;;;;5.97;4.00;;;;;;;8.38;96.20;95088.31;5129764;28;20204;-76
2023/05/13 02:37:57;;;;;;;7.43;4.60;;;;;;;8.31;94.83;95086.00;5143820;27;20261;-75
2023/05/13 02:40:24;;;;;;;5.47;3.42;;;;;;;8.41;95.20;95082.31;5129693;28;20201;-77
2023/05/13 02:42:51;;;;;;;8.07;3.60;;;;;;;8.43;92.26;95069.31;5130256;28;20242;-77
2023/05/13 02:45:18;;;;;;;3.28;2.22;;;;;;;8.34;85.42;95071.91;5130078;28;20221;-77
2023/05/13 02:47:46;;;;;;;5.55;2.50;;;;;;;8.39;85.53;95077.22;5130173;28;20628;-77
2023/05/13 02:50:13;;;;;;;5.38;2.83;;;;;;;8.37;84.33;95076.72;5130199;28;20265;-78
2023/05/13 02:52:40;;;;;;;3.60;2.67;;;;;;;8.43;85.10;95086.31;5130014;28;20232;-77
2023/05/13 02:55:08;;;;;;;4.07;2.30;;;;;;;8.57;85.70;95083.59;5129816;28;20662;-77
2023/05/13 02:57:36;;;;;;;4.47;2.47;;;;;;;8.58;86.59;95087.09;5130291;28;20209;-76
2023/05/13 03:00:04;;;;;;;3.83;2.40;;;;;;;8.47;87.35;95087.28;5129643;28;20211;-76
2023/05/13 03:02:31;;;;;;;8.02;3.58;;;;;;;8.50;90.16;95094.78;5130076;28;20204;-76
2023/05/13 03:04:59;;;;;;;8.95;3.42;;;;;;;8.38;92.20;95105.31;5129727;28;20266;-76
2023/05/13 03:07:25;;;;;;;6.20;3.92;;;;;;;8.21;94.41;95094.28;5129956;28;20201;-75
2023/05/13 03:09:52;;;;;;;7.28;4.32;;;;;;;8.34;94.60;95104.31;5130000;28;20205;-76
2023/05/13 03:12:19;;;;;;;7.22;4.47;;;;;;;8.43;95.17;95104.41;5129907;28;20229;-76
2023/05/13 03:14:46;;;;;;;7.03;4.25;;;;;;;8.60;95.59;95103.81;5130623;27;20213;-77
2023/05/13 03:17:13;;;;;;;6.15;4.05;;;;;;;8.66;94.96;95100.66;5133587;27;20204;-76
2023/05/13 03:19:40;;;;;;;9.80;4.25;;;;;;;8.68;94.19;95097.66;5134017;27;20209;-76
2023/05/13 03:22:09;;;;;;;8.07;4.05;;;;;;;8.72;94.97;95104.06;5133637;27;20663;-76
2023/05/13 03:24:35;;;;;;;10.43;4.85;;;;;;;8.72;94.41;95101.38;5133968;27;20246;-76
2023/05/13 03:27:02;;;;;;;8.80;4.57;;;;;;;8.68;93.10;95103.88;5134252;27;20208;-76
2023/05/13 03:29:29;;;;;;;8.38;4.35;;;;;;;8.79;93.48;95109.84;5133613;27;20201;-76
2023/05/13 03:31:56;;;;;;;6.30;3.65;;;;;;;8.74;92.62;95112.69;5133507;27;20252;-76
2023/05/13 03:34:23;;;;;;;7.50;4.10;;;;;;;8.72;90.78;95104.06;5133039;27;20229;-76
2023/05/13 03:36:50;;;;;;;8.43;4.72;;;;;;;8.86;91.27;95110.25;5133482;27;20204;-76
2023/05/13 03:39:18;;;;;;;8.00;4.65;;;;;;;8.98;92.38;95110.50;5133427;27;20612;-76
2023/05/13 03:41:45;;;;;;;8.80;4.10;;;;;;;9.16;93.47;95117.63;5133092;27;20217;-76
2023/05/13 03:44:11;;;;;;;5.90;3.95;;;;;;;9.32;92.77;95122.66;5133065;27;20205;-76
2023/05/13 03:46:38;;;;;;;8.00;3.70;;;;;;;9.40;92.20;95119.25;5133229;27;20201;-75
2023/05/13 03:49:05;;;;;;;7.70;4.40;;;;;;;9.36;92.21;95119.06;5133407;27;20250;-76
2023/05/13 03:51:33;;;;;;;6.88;4.28;;;;;;;9.39;92.78;95120.34;5121576;27;20718;-76
2023/05/13 03:54:00;;;;;;;7.93;4.30;;;;;;;9.43;92.33;95113.22;5130886;27;20208;-75
2023/05/13 03:56:28;;;;;;;7.38;4.68;;;;;;;9.54;92.20;95115.38;5132420;27;20284;-75
2023/05/13 03:58:55;;;;;;;8.13;5.45;;;;;;;9.62;91.60;95127.34;5132878;27;20281;-75
2023/05/13 04:01:21;;;;;;;8.10;5.00;;;;;;;9.86;90.96;95144.03;5132892;27;20204;-76
2023/05/13 04:03:49;;;;;;;9.63;4.65;;;;;;;9.89;89.85;95146.13;5132877;27;20258;-76
2023/05/13 04:06:15;;;;;;;7.05;4.22;;;;;;;9.84;88.31;95146.25;5132397;27;20739;-76
2023/05/13 04:08:43;;;;;;;7.65;6.18;;;;;;;10.02;89.15;95147.13;5132987;27;20197;-75
2023/05/13 04:11:09;;;;;;;7.85;4.53;;;;;;;9.88;87.57;95152.63;5132834;27;20201;-75
2023/05/13 04:13:38;;;;;;;8.43;4.47;;;;;;;9.70;87.47;95145.53;5132674;27;20228;-75
2023/05/13 04:16:05;;;;;;;10.52;6.18;;;;;;;9.68;88.40;95147.75;5132413;27;20611;-75
2023/05/13 04:18:33;;;;;;;7.72;5.05;;;;;;;9.86;89.10;95154.06;5132496;27;20212;-76
2023/05/13 04:21:00;;;;;;;7.85;4.65;;;;;;;9.86;88.86;95149.44;5133103;27;20267;-75
2023/05/13 04:23:27;;;;;;;7.55;4.00;;;;;;;9.88;88.34;95151.84;5146333;27;20655;-75
2023/05/13 04:25:53;;;;;;;6.38;4.47;;;;;;;10.03;88.71;95137.09;5131835;27;20266;-77
2023/05/13 04:28:20;;;;;;;4.90;3.15;;;;;;;9.91;88.58;95151.22;5131688;27;20660;-77
2023/05/13 04:30:48;;;;;;;6.40;3.70;;;;;;;9.72;87.73;95154.13;5132129;27;20201;-75
2023/05/13 04:33:15;;;;;;;6.57;3.58;;;;;;;9.50;87.15;95157.66;5131819;27;20711;-77
2023/05/13 04:35:42;;;;;;;6.25;4.05;;;;;;;9.58;87.64;95167.72;5132181;27;20532;-76
2023/05/13 04:38:09;;;;;;;5.70;3.92;;;;;;;9.67;86.05;95170.50;5118961;27;20276;-76
2023/05/13 04:40:36;;;;;;;11.15;3.72;;;;;;;9.95;85.37;95169.25;5132315;27;20236;-77
2023/05/13 04:43:02;;;;;;;7.68;4.55;;;;;;;9.97;83.94;95177.88;5131973;27;20666;-76
2023/05/13 04:45:30;;;;;;;4.57;3.83;;;;;;;10.12;84.58;95183.97;5131586;27;20256;-76
2023/05/13 04:47:58;;;;;;;3.83;3.13;;;;;;;10.55;83.94;95171.44;5131871;27;20281;-77
2023/05/13 04:50:25;;;;;;;5.78;3.35;;;;;;;10.77;80.12;95178.69;5132137;27;20196;-78
2023/05/13 04:52:53;;;;;;;5.95;3.60;;;;;;;12.10;77.39;95165.31;5132367;27;20649;-79
2023/05/13 04:55:20;;;;;;;6.95;3.30;;;;;;;12.86;75.07;95164.50;5131772;27;20679;-79
2023/05/13 04:57:47;;;;;;;6.78;3.83;;;;;;;13.43;71.14;95151.19;5131668;27;20245;-78
2023/05/13 05:00:15;;;;;;;10.13;3.55;;;;;;;13.19;69.48;95151.88;5131645;27;20246;-78
2023/05/13 05:02:41;;;;;;;7.57;4.32;;;;;;;12.66;71.52;95150.56;5131682;27;20209;-78
2023/05/13 05:05:10;;;;;;;5.55;4.03;;;;;;;14.22;72.42;95133.78;5131154;27;20216;-79
2023/05/13 05:07:39;;;;;;;5.15;3.55;;;;;;;15.98;66.71;95126.75;5131312;27;20605;-79
2023/05/13 05:10:07;;;;;;;5.97;4.13;;;;;;;16.48;60.70;95133.50;5136058;27;20622;-78
2023/05/13 05:12:34;;;;;;;5.15;4.32;;;;;;;15.64;63.08;95127.34;5141060;27;20320;-77
2023/05/13 05:15:00;;;;;;;6.10;4.40;;;;;;;14.75;64.95;95141.03;5131572;27;20204;-79
2023/05/13 05:17:31;;;;;;;7.07;4.93;;;;;;;14.44;64.32;95148.94;5131430;27;20211;-78
2023/05/13 05:19:58;;;;;;;5.78;4.15;;;;;;;14.07;66.92;95159.75;5131872;27;20189;-77
2023/05/13 05:22:26;;;;;;;7.53;4.97;;;;;;;14.68;68.28;95145.44;5131673;27;20205;-77
2023/05/13 05:24:53;;;;;;;5.93;4.72;;;;;;;15.10;61.98;95143.25;5131553;27;20205;-74
2023/05/13 05:27:22;;;;;;;6.10;4.40;;;;;;;15.07;62.95;95152.13;5128698;27;20368;-76
2023/05/13 05:29:49;;;;;;;5.40;4.28;;;;;;;15.17;61.29;95157.91;5131290;27;20254;-78
2023/05/13 05:32:16;;;;;;;6.68;4.60;;;;;;;15.46;60.82;95151.38;5131435;27;20205;-76
2023/05/13 05:34:43;;;;;;;7.43;4.35;;;;;;;15.36;62.70;95142.88;5130826;27;20648;-78
2023/05/13 05:37:09;;;;;;;5.13;3.97;;;;;;;16.32;60.38;95141.69;5131028;27;20205;-77
2023/05/13 05:39:39;;;;;;;5.20;4.15;;;;;;;17.30;57.25;95136.25;5134260;27;20197;-76
2023/05/13 05:42:07;;;;;;;5.18;4.05;;;;;;;19.30;51.37;95124.25;5134790;27;20334;-76
2023/05/13 05:44:34;;;;;;;6.43;4.50;;;;;;;20.26;49.84;95128.22;5130785;27;21028;-75
2023/05/13 05:47:00;;;;;;;5.20;4.68;;;;;;;18.85;49.74;95136.94;5130545;27;20574;-75
2023/05/13 05:49:27;;;;;;;6.82;4.75;;;;;;;16.81;54.09;95144.09;5130783;27;20197;-76
2023/05/13 05:51:54;;;;;;;8.90;5.50;;;;;;;15.36;58.89;95149.13;5130577;27;20241;-74
2023/05/13 05:54:21;;;;;;;8.77;4.93;;;;;;;15.34;58.15;95156.84;5130343;27;20228;-77
2023/05/13 05:56:49;;;;;;;5.80;4.68;;;;;;;15.31;57.66;95156.78;5129563;27;20201;-75
2023/05/13 05:59:16;;;;;;;6.15;4.93;;;;;;;15.34;59.95;95156.84;5130281;27;20262;-75
2023/05/13 06:01:43;;;;;;;6.68;5.07;;;;;;;15.12;60.15;95154.63;5130062;27;20200;-76
2023/05/13 06:04:09;;;;;;;5.90;4.97;;;;;;;15.03;59.73;95156.69;5137616;27;20200;-75
2023/05/13 06:06:38;;;;;;;5.60;4.97;;;;;;;15.60;60.67;95160.00;5135282;27;20221;-76
2023/05/13 06:09:04;;;;;;;8.10;4.95;;;;;;;14.77;60.41;95163.28;5129907;27;20655;-76
2023/05/13 06:11:31;;;;;;;6.68;5.18;;;;;;;14.48;62.93;95161.56;5129261;27;20205;-76
2023/05/13 06:14:00;;;;;;;6.93;4.88;;;;;;;14.63;62.02;95162.81;5138395;27;20280;-75
2023/05/13 06:16:27;;;;;;;8.30;5.10;;;;;;;14.49;61.37;95165.88;5134275;27;20209;-76
2023/05/13 06:18:54;;;;;;;8.90;5.00;;;;;;;14.25;61.91;95165.81;5129994;27;20196;-75
2023/05/13 06:21:21;;;;;;;6.45;5.25;;;;;;;14.33;62.89;95167.66;5129851;27;20200;-76
2023/05/13 06:23:47;;;;;;;8.77;5.43;;;;;;;14.63;62.47;95165.53;5130198;27;20205;-74
2023/05/13 06:26:14;;;;;;;11.32;5.63;;;;;;;14.83;61.15;95159.19;5129865;28;20205;-74
2023/05/13 06:28:41;;;;;;;6.55;5.07;;;;;;;13.78;62.86;95173.50;5139560;27;20200;-77
2023/05/13 06:31:09;;;;;;;10.50;5.30;;;;;;;14.32;61.90;95170.72;5133954;27;20427;-77
2023/05/13 06:33:36;;;;;;;7.63;5.35;;;;;;;14.36;61.43;95177.06;5129756;28;20240;-76
2023/05/13 06:36:02;;;;;;;10.50;5.20;;;;;;;14.32;61.42;95170.72;5129540;28;20212;-75
2023/05/13 06:38:29;;;;;;;6.75;4.60;;;;;;;14.89;60.46;95168.75;5129762;28;20193;-76
2023/05/13 06:40:56;;;;;;;9.50;5.40;;;;;;;15.24;60.39;95176.44;5129710;28;20477;-73
2023/05/13 06:43:23;;;;;;;7.00;4.50;;;;;;;14.17;60.64;95180.31;5130097;28;20552;-75
2023/05/13 06:45:49;;;;;;;6.43;4.55;;;;;;;15.05;58.17;95176.22;5129682;28;20252;-74
2023/05/13 06:48:18;;;;;;;8.73;4.40;;;;;;;15.77;56.93;95164.41;5129674;28;20262;-75
2023/05/13 06:50:44;;;;;;;6.65;4.72;;;;;;;15.51;56.56;95162.06;5127941;27;20201;-75
2023/05/13 06:53:11;;;;;;;9.00;4.47;;;;;;;15.82;55.64;95166.88;5124833;27;20236;-76
2023/05/13 06:55:40;;;;;;;5.47;4.43;;;;;;;16.38;54.45;95160.59;5123161;27;20724;-77
2023/05/13 06:58:08;;;;;;;7.05;5.07;;;;;;;16.91;54.56;95165.47;5133214;27;20205;-75
2023/05/13 07:00:36;;;;;;;9.80;5.88;;;;;;;16.17;54.58;95164.31;5133398;27;20455;-74
2023/05/13 07:03:03;;;;;;;7.85;4.47;;;;;;;16.57;53.24;95163.41;5133437;27;20209;-75
2023/05/13 07:05:32;;;;;;;9.65;5.32;;;;;;;17.25;51.59;95171.34;5138736;27;20841;-73
2023/05/13 07:07:59;;;;;;;8.43;4.28;;;;;;;17.52;51.48;95175.06;5141268;27;20201;-73
2023/05/13 07:10:25;;;;;;;7.53;4.70;;;;;;;18.39;49.82;95166.28;5133477;27;20258;-74
2023/05/13 07:12:52;;;;;;;10.75;4.88;;;;;;;18.73;49.33;95167.31;5130402;27;20205;-75
2023/05/13 07:15:19;;;;;;;9.05;4.80;;;;;;;19.07;47.01;95162.78;5146185;27;20205;-74
2023/05/13 07:17:46;;;;;;;6.53;4.25;;;;;;;18.82;46.21;95170.63;5132817;27;20253;-74
2023/05/13 07:20:13;;;;;;;6.65;4.88;;;;;;;17.79;47.96;95185.06;5132497;27;20205;-74
2023/05/13 07:22:41;;;;;;;7.60;4.65;;;;;;;17.47;50.19;95189.84;5132055;27;20197;-76
2023/05/13 07:25:09;;;;;;;8.57;4.85;;;;;;;17.03;50.51;95192.75;5146965;27;20276;-77
2023/05/13 07:27:36;;;;;;;7.53;4.35;;;;;;;17.27;50.81;95201.91;5132200;27;20189;-75
2023/05/13 07:30:03;;;;;;;6.68;4.30;;;;;;;17.24;50.24;95191.66;5133012;27;20201;-75
2023/05/13 07:32:30;;;;;;;8.48;4.53;;;;;;;16.66;51.35;95192.22;5131764;27;20196;-75
2023/05/13 07:34:57;;;;;;;6.93;3.92;;;;;;;16.91;49.22;95206.53;5132460;27;20813;-73
2023/05/13 07:37:24;;;;;;;7.25;4.57;;;;;;;17.66;48.15;95195.38;5131602;27;20201;-74
2023/05/13 07:39:52;;;;;;;9.18;4.10;;;;;;;18.28;48.10;95181.75;5132447;27;20552;-74
2023/05/13 07:42:19;;;;;;;5.13;3.88;;;;;;;19.09;45.45;95174.97;5129161;27;20204;-75
2023/05/13 07:44:46;;;;;;;8.15;4.55;;;;;;;19.58;44.88;95176.91;5118000;27;20205;-75
2023/05/13 07:47:13;;;;;;;6.40;4.50;;;;;;;18.72;45.83;95176.72;5127196;27;20208;-74
2023/05/13 07:49:40;;;;;;;8.45;4.28;;;;;;;20.18;42.46;95187.91;5131452;27;20197;-74
2023/05/13 07:52:07;;;;;;;5.80;4.65;;;;;;;20.18;43.14;95185.16;5132191;27;20246;-74
2023/05/13 07:54:33;;;;;;;8.07;5.32;;;;;;;21.69;40.31;95177.91;5132746;27;20232;-75
2023/05/13 07:57:02;;;;;;;8.48;5.00;;;;;;;20.03;42.98;95181.44;5132910;27;20201;-76
2023/05/13 07:59:29;;;;;;;8.63;5.53;;;;;;;17.97;46.93;95201.91;5132343;27;20194;-75
2023/05/13 08:01:56;;;;;;;7.10;4.60;;;;;;;18.49;46.38;95182.16;5131450;27;20271;-75
2023/05/13 08:04:23;;;;;;;7.70;5.38;;;;;;;18.61;45.95;95181.22;5129994;27;20730;-74
2023/05/13 08:06:50;;;;;;;7.28;5.75;;;;;;;16.73;49.34;95180.66;5127719;27;20201;-75
2023/05/13 08:09:16;;;;;;;9.95;5.95;;;;;;;17.43;49.39;95188.97;5123283;27;20197;-75
2023/05/13 08:11:43;;;;;;;7.18;5.53;;;;;;;18.31;48.36;95183.78;5146208;27;20208;-76
2023/05/13 08:14:12;;;;;;;8.48;5.10;;;;;;;17.65;49.11;95185.56;5132425;27;20240;-78
2023/05/13 08:16:38;;;;;;;8.48;5.75;;;;;;;17.98;49.89;95178.81;5131852;27;20205;-77
2023/05/13 08:19:05;;;;;;;7.22;5.40;;;;;;;17.52;50.30;95180.53;5131943;27;20587;-76
2023/05/13 08:21:32;;;;;;;9.77;5.82;;;;;;;16.43;53.04;95182.19;5132198;27;20197;-80
2023/05/13 08:23:59;;;;;;;8.57;5.97;;;;;;;16.96;53.23;95178.88;5142059;27;20307;-77
2023/05/13 08:26:28;;;;;;;9.35;5.70;;;;;;;17.64;51.82;95174.97;5149819;27;20204;-77
2023/05/13 08:28:56;;;;;;;5.93;4.90;;;;;;;16.76;51.40;95177.22;5131787;27;20667;-77
2023/05/13 08:31:24;;;;;;;8.13;5.85;;;;;;;17.27;52.19;95169.03;5131282;27;20694;-79
2023/05/13 08:33:52;;;;;;;9.25;6.18;;;;;;;18.22;50.70;95159.31;5131132;27;20320;-78
2023/05/13 08:36:19;;;;;;;10.05;5.43;;;;;;;18.04;49.58;95164.44;5131178;27;20212;-74
2023/05/13 08:38:46;;;;;;;10.10;6.32;;;;;;;17.61;51.07;95171.00;5131186;27;20201;-76
2023/05/13 08:41:13;;;;;;;7.18;5.03;;;;;;;17.66;50.78;95165.22;5131016;27;20602;-75
2023/05/13 08:43:42;;;;;;;7.35;5.03;;;;;;;18.25;49.94;95153.09;5131481;27;20293;-77
2023/05/13 08:46:10;;;;;;;6.75;4.63;;;;;;;18.16;47.60;95149.81;5131830;27;20209;-79
2023/05/13 08:48:40;;;;;;;8.15;4.93;;;;;;;17.69;48.57;95153.56;5131274;27;20632;-77
2023/05/13 08:51:08;;;;;;;8.00;4.90;;;;;;;18.68;47.62;95151.16;5143403;27;20201;-76
2023/05/13 08:53:36;;;;;;;7.55;5.05;;;;;;;18.48;47.26;95153.91;5131339;27;20224;-76
2023/05/13 08:56:04;;;;;;;10.38;5.13;;;;;;;17.91;48.03;95156.72;5131237;27;20296;-76
2023/05/13 08:58:31;;;;;;;9.35;5.55;;;;;;;17.28;49.71;95149.50;5131048;27;20249;-77
2023/05/13 09:00:58;;;;;;;14.35;6.93;;;;;;;18.23;50.01;95144.44;5131092;27;20241;-77
2023/05/13 09:03:27;;;;;;;10.27;5.30;;;;;;;18.63;48.14;95134.97;5131056;27;20220;-76
2023/05/13 09:05:56;;;;;;;9.18;5.70;;;;;;;18.44;48.47;95122.91;5131366;27;20253;-78
2023/05/13 09:08:23;;;;;;;10.40;6.10;;;;;;;18.63;49.93;95118.53;5130859;27;20208;-76
2023/05/13 09:10:50;;;;;;;14.48;7.28;;;;;;;19.51;47.70;95108.13;5141100;27;20659;-76
2023/05/13 09:13:19;;;;;;;10.55;6.03;;;;;;;18.66;48.44;95118.59;5133858;27;20273;-72
2023/05/13 09:15:46;;;;;;;8.25;5.80;;;;;;;19.04;50.59;95123.09;5130846;27;20205;-76
2023/05/13 09:18:16;;;;;;;9.05;6.00;;;;;;;19.10;50.12;95118.09;5130740;27;20192;-74
2023/05/13 09:20:43;;;;;;;13.00;6.07;;;;;;;19.43;48.21;95117.38;5130866;27;20262;-77
2023/05/13 09:23:11;;;;;;;11.40;6.45;;;;;;;19.38;49.30;95121.25;5130732;27;20250;-76
2023/05/13 09:25:38;;;;;;;11.05;5.65;;;;;;;19.53;46.30;95119.53;5130441;27;20344;-79
2023/05/13 09:28:07;;;;;;;10.43;6.45;;;;;;;18.91;47.34;95124.47;5144220;27;20216;-72
2023/05/13 09:30:37;;;;;;;10.57;5.95;;;;;;;18.89;50.29;95124.03;5131099;27;20201;-78
2023/05/13 09:33:09;;;;;;;7.40;5.82;;;;;;;19.37;48.44;95118.88;5130238;27;20798;-78
2023/05/13 09:35:37;;;;;;;9.95;6.18;;;;;;;19.59;47.69;95118.03;5130500;27;20217;-74
2023/05/13 09:38:17;;;;;;;8.02;5.65;;;;;;;19.72;47.17;95108.38;5130054;27;20200;-72
2023/05/13 09:40:51;;;;;;;10.07;5.50;;;;;;;19.47;46.97;95118.22;5139327;27;20192;-76
2023/05/13 09:43:19;;;;;;;8.07;5.18;;;;;;;19.48;48.55;95103.31;5130239;27;20727;-74
2023/05/13 09:45:46;;;;;;;8.32;5.78;;;;;;;19.88;48.31;95103.47;5130243;27;20205;-74
2023/05/13 09:48:15;;;;;;;9.98;5.90;;;;;;;20.09;46.45;95099.38;5130275;27;20197;-74
2023/05/13 09:50:49;;;;;;;9.43;5.93;;;;;;;20.19;46.24;95098.69;5129842;27;20686;-75
2023/05/13 09:53:19;;;;;;;9.35;5.63;;;;;;;20.03;47.36;95101.66;5130190;27;20656;-73
2023/05/13 09:55:46;;;;;;;8.00;5.63;;;;;;;20.30;47.27;95105.09;5129947;27;20221;-75
2023/05/13 09:58:13;;;;;;;9.00;5.65;;;;;;;20.89;44.79;95086.78;5129638;27;20193;-75
2023/05/13 10:00:41;;;;;;;14.18;6.95;;;;;;;21.26;45.43;95090.22;5129554;27;20205;-73
2023/05/13 10:03:08;;;;;;;8.10;5.85;;;;;;;20.44;45.86;95088.75;5129408;27;20235;-75
2023/05/13 10:05:35;;;;;;;7.53;5.30;;;;;;;19.83;46.40;95103.78;5128792;27;20687;-74
2023/05/13 10:08:02;;;;;;;10.15;5.47;;;;;;;18.89;47.92;95104.03;5129725;27;20201;-74
2023/05/13 10:10:33;;;;;;;8.55;5.78;;;;;;;18.89;47.84;95101.28;5129885;27;20196;-74
2023/05/13 10:13:03;;;;;;;11.43;5.90;;;;;;;19.91;46.88;95092.88;5129864;27;20205;-75
2023/05/13 10:15:30;;;;;;;7.45;5.13;;;;;;;19.83;46.96;95097.50;5116562;27;20642;-74
2023/05/13 10:17:59;;;;;;;8.25;5.72;;;;;;;20.29;46.02;95092.50;5128787;27;20253;-74
2023/05/13 10:20:26;;;;;;;6.88;4.75;;;;;;;20.81;46.76;95096.13;5128711;27;20197;-74
2023/05/13 10:22:54;;;;;;;7.50;5.70;;;;;;;20.29;46.04;95103.50;5129606;27;20197;-74
2023/05/13 10:25:21;;;;;;;7.40;4.63;;;;;;;20.61;46.69;95089.31;5128982;27;20609;-74
2023/05/13 10:27:51;;;;;;;6.97;4.72;;;;;;;19.86;48.16;95088.50;5129785;27;20216;-75
2023/05/13 10:30:19;;;;;;;7.20;5.22;;;;;;;19.38;49.67;95093.00;5129929;28;20262;-75
2023/05/13 10:32:46;;;;;;;9.18;5.22;;;;;;;19.61;49.33;95093.72;5129759;28;20204;-76
2023/05/13 10:35:15;;;;;;;7.40;5.22;;;;;;;19.03;51.96;95083.06;5130058;28;20213;-77
2023/05/13 10:37:59;;;;;;;6.57;5.35;;;;;;;18.67;53.41;95097.41;5129117;28;20204;-75
2023/05/13 10:40:38;;;;;;;7.88;5.28;;;;;;;18.38;51.22;95096.13;5129426;28;20200;-74
2023/05/13 10:43:17;;;;;;;8.13;5.10;;;;;;;18.54;51.13;95104.22;5116304;28;20651;-77
2023/05/13 10:45:47;;;;;;;11.25;5.85;;;;;;;18.72;52.79;95105.34;5129901;28;20228;-76
2023/05/13 10:48:16;;;;;;;9.05;5.53;;;;;;;18.79;52.67;95105.47;5129484;28;20249;-74
2023/05/13 10:50:52;;;;;;;6.88;5.30;;;;;;;19.10;50.77;95110.66;5129130;28;20193;-72
2023/05/13 10:53:23;;;;;;;8.45;5.38;;;;;;;19.43;51.09;95106.38;5128914;28;20284;-77
2023/05/13 10:55:54;;;;;;;7.57;5.90;;;;;;;19.58;51.61;95105.44;5129649;28;20295;-75
2023/05/13 10:58:28;;;;;;;6.88;5.82;;;;;;;19.62;50.35;95109.03;5128950;28;20658;-74
2023/05/13 11:01:13;;;;;;;7.53;5.80;;;;;;;20.09;49.33;95099.38;5129331;28;20193;-75
2023/05/13 11:03:40;;;;;;;7.45;5.30;;;;;;;20.17;50.00;95112.84;5133158;27;20287;-74
2023/05/13 11:06:18;;;;;;;9.65;5.60;;;;;;;20.09;49.36;95108.41;5138108;27;20197;-75
2023/05/13 11:08:46;;;;;;;9.57;5.78;;;;;;;20.06;49.38;95111.13;5128885;28;20208;-73
2023/05/13 11:11:35;;;;;;;8.35;5.40;;;;;;;19.71;50.10;95093.03;5129587;28;20197;-75
2023/05/13 11:14:19;;;;;;;7.35;5.75;;;;;;;19.46;49.90;95102.91;5121313;27;20208;-78
2023/05/13 11:16:47;;;;;;;6.07;5.47;;;;;;;19.06;50.45;95098.81;5130178;27;20204;-76
2023/05/13 11:19:23;;;;;;;9.85;5.90;;;;;;;19.05;51.30;95099.97;5128566;28;20295;-76
2023/05/13 11:21:54;;;;;;;9.18;5.53;;;;;;;18.54;52.14;95094.03;5129462;28;20215;-75
2023/05/13 11:24:21;;;;;;;9.00;6.40;;;;;;;18.47;52.13;95089.22;5142794;27;20208;-77
2023/05/13 11:26:50;;;;;;;7.47;5.85;;;;;;;18.85;52.60;95076.53;5128438;28;20200;-75
2023/05/13 11:29:30;;;;;;;7.32;5.60;;;;;;;19.62;51.77;95076.06;5128167;28;20205;-77
2023/05/13 11:31:57;;;;;;;8.82;5.93;;;;;;;20.13;49.84;95073.47;5130041;28;20189;-75
2023/05/13 11:34:25;;;;;;;8.98;5.68;;;;;;;20.16;48.78;95067.22;5129219;28;20293;-76
2023/05/13 11:37:06;;;;;;;8.25;5.43;;;;;;;20.34;48.49;95053.66;5132021;27;20374;-77
2023/05/13 11:39:33;;;;;;;9.13;6.55;;;;;;;20.50;48.17;95054.19;5133192;27;20214;-76
2023/05/13 11:42:01;;;;;;;7.32;5.78;;;;;;;20.85;47.87;95052.91;5133058;27;21005;-76